Time,TemperatureF,DewpointF,PressureIn,WindDirection,WindDirectionDegrees,WindSpeedMPH,WindSpeedGustMPH,Humidity,HourlyPrecipIn,Conditions,Clouds,dailyrainin,SoftwareType,DateUTC
2013-10-12 00:01:00,70.5,67.4,29.83,NNE,22,0.0,-999.0,90,-99.99,,,0.00,Acu-Link.com,2013-10-12 05:01:00,
2013-10-12 00:18:00,70.2,67.1,29.84,West,270,0.0,-999.0,90,-99.99,,,0.00,Acu-Link.com,2013-10-12 05:18:00,
2013-10-12 00:33:00,69.8,66.7,29.86,North,0,0.0,-999.0,90,-99.99,,,0.00,Acu-Link.com,2013-10-12 05:33:00,
2013-10-12 00:49:00,69.4,66.3,29.85,East,90,0.0,-999.0,90,-99.99,,,0.00,Acu-Link.com,2013-10-12 05:49:00,
2013-10-12 01:04:00,69.3,66.6,29.87,East,90,0.0,-999.0,91,-99.99,,,0.00,Acu-Link.com,2013-10-12 06:04:00,
2013-10-12 01:19:00,68.9,66.2,29.86,ENE,67,0.0,-999.0,91,-99.99,,,0.00,Acu-Link.com,2013-10-12 06:19:00,
2013-10-12 01:34:00,68.9,66.2,29.85,ESE,112,0.0,-999.0,91,-99.99,,,0.00,Acu-Link.com,2013-10-12 06:34:00,
2013-10-12 01:49:00,68.5,65.8,29.85,ESE,112,0.0,-999.0,91,-99.99,,,0.00,Acu-Link.com,2013-10-12 06:49:00,
2013-10-12 02:05:00,68.4,65.7,29.85,ESE,112,0.0,-999.0,91,-99.99,,,0.00,Acu-Link.com,2013-10-12 07:05:00,
2013-10-12 02:20:00,69.1,66.7,29.87,SE,135,0.0,-999.0,92,-99.99,,,0.00,Acu-Link.com,2013-10-12 07:20:00,
2013-10-12 02:39:00,69.3,66.9,29.83,East,90,0.0,-999.0,92,-99.99,,,0.00,Acu-Link.com,2013-10-12 07:39:00,
2013-10-12 02:54:00,69.3,66.9,29.82,ESE,112,0.0,-999.0,92,-99.99,,,0.00,Acu-Link.com,2013-10-12 07:54:00,
2013-10-12 03:10:00,69.3,66.9,29.86,SE,135,0.0,-999.0,92,-99.99,,,0.00,Acu-Link.com,2013-10-12 08:10:00,
2013-10-12 03:25:00,69.3,66.9,29.85,ESE,112,0.0,-999.0,92,-99.99,,,0.00,Acu-Link.com,2013-10-12 08:25:00,
2013-10-12 03:40:00,68.9,66.5,29.84,ESE,112,0.0,-999.0,92,-99.99,,,0.00,Acu-Link.com,2013-10-12 08:40:00,
2013-10-12 03:56:00,68.9,66.5,29.82,ESE,112,1.7,-999.0,92,-99.99,,,0.00,Acu-Link.com,2013-10-12 08:56:00,
2013-10-12 04:11:00,68.9,66.5,29.81,ESE,112,1.7,-999.0,92,-99.99,,,0.00,Acu-Link.com,2013-10-12 09:11:00,
2013-10-12 04:26:00,68.7,66.6,29.85,ESE,112,1.1,-999.0,93,-99.99,,,0.00,Acu-Link.com,2013-10-12 09:26:00,
2013-10-12 04:41:00,68.5,66.4,29.84,ESE,112,2.7,-999.0,93,-99.99,,,0.00,Acu-Link.com,2013-10-12 09:41:00,
2013-10-12 04:56:00,68.2,66.1,29.84,West,270,0.0,-999.0,93,-99.99,,,0.00,Acu-Link.com,2013-10-12 09:56:00,
2013-10-12 05:12:00,68.2,66.1,29.86,North,0,0.0,-999.0,93,-99.99,,,0.00,Acu-Link.com,2013-10-12 10:12:00,
2013-10-12 05:27:00,68.0,65.9,29.84,South,180,0.0,-999.0,93,-99.99,,,0.00,Acu-Link.com,2013-10-12 10:27:00,
2013-10-12 05:42:00,67.5,65.4,29.86,South,180,0.0,-999.0,93,-99.99,,,0.00,Acu-Link.com,2013-10-12 10:42:00,
2013-10-12 05:57:00,67.5,65.4,29.85,SE,135,0.0,-999.0,93,-99.99,,,0.00,Acu-Link.com,2013-10-12 10:57:00,
2013-10-12 06:12:00,68.0,65.9,29.90,South,180,0.0,-999.0,93,-99.99,,,0.00,Acu-Link.com,2013-10-12 11:12:00,
2013-10-12 06:28:00,68.2,66.1,29.89,SSW,202,0.0,-999.0,93,-99.99,,,0.00,Acu-Link.com,2013-10-12 11:28:00,
2013-10-12 06:43:00,68.0,65.9,29.91,NNE,22,0.0,-999.0,93,-99.99,,,0.00,Acu-Link.com,2013-10-12 11:43:00,
2013-10-12 06:58:00,67.8,65.7,29.89,East,90,0.0,-999.0,93,-99.99,,,0.00,Acu-Link.com,2013-10-12 11:58:00,
2013-10-12 07:13:00,67.6,65.5,29.91,SSE,157,0.0,-999.0,93,-99.99,,,0.00,Acu-Link.com,2013-10-12 12:13:00,
2013-10-12 07:28:00,68.2,66.1,29.87,NE,45,0.0,-999.0,93,-99.99,,,0.00,Acu-Link.com,2013-10-12 12:28:00,
2013-10-12 07:44:00,69.3,67.2,29.88,SSE,157,0.0,-999.0,93,-99.99,,,0.00,Acu-Link.com,2013-10-12 12:44:00,
2013-10-12 07:59:00,71.2,69.1,29.89,SE,135,0.0,-999.0,93,-99.99,,,0.00,Acu-Link.com,2013-10-12 12:59:00,
2013-10-12 08:14:00,73.2,70.4,29.89,ESE,112,3.2,-999.0,91,-99.99,,,0.00,Acu-Link.com,2013-10-12 13:14:00,
2013-10-12 08:29:00,75.0,71.5,29.90,ENE,67,0.0,-999.0,89,-99.99,,,0.00,Acu-Link.com,2013-10-12 13:29:00,
2013-10-12 08:44:00,76.3,72.5,29.88,SE,135,2.7,-999.0,88,-99.99,,,0.00,Acu-Link.com,2013-10-12 13:44:00,
2013-10-12 09:00:00,77.9,73.7,29.89,SE,135,3.2,-999.0,87,-99.99,,,0.00,Acu-Link.com,2013-10-12 14:00:00,
2013-10-12 09:15:00,79.2,74.3,29.91,East,90,2.7,-999.0,85,-99.99,,,0.00,Acu-Link.com,2013-10-12 14:15:00,
2013-10-12 09:30:00,80.6,74.6,29.90,SSW,202,4.7,-999.0,82,-99.99,,,0.00,Acu-Link.com,2013-10-12 14:30:00,
2013-10-12 09:45:00,82.2,75.4,29.91,SSE,157,5.3,-999.0,80,-99.99,,,0.00,Acu-Link.com,2013-10-12 14:45:00,
2013-10-12 10:01:00,81.9,75.1,29.92,South,180,6.8,-999.0,80,-99.99,,,0.00,Acu-Link.com,2013-10-12 15:01:00,
2013-10-12 10:16:00,82.0,75.2,29.94,WSW,247,4.2,-999.0,80,-99.99,,,0.00,Acu-Link.com,2013-10-12 15:16:00,
2013-10-12 10:31:00,83.8,76.2,29.90,West,270,3.7,-999.0,78,-99.99,,,0.00,Acu-Link.com,2013-10-12 15:31:00,
2013-10-12 10:46:00,84.0,75.2,29.90,SW,225,7.3,-999.0,75,-99.99,,,0.00,Acu-Link.com,2013-10-12 15:46:00,
2013-10-12 11:02:00,82.4,74.4,29.88,SSW,202,2.2,-999.0,77,-99.99,,,0.00,Acu-Link.com,2013-10-12 16:02:00,
2013-10-12 11:17:00,85.3,74.4,29.87,South,180,9.9,-999.0,70,-99.99,,,0.00,Acu-Link.com,2013-10-12 16:17:00,
2013-10-12 11:32:00,86.2,74.4,29.87,SE,135,9.4,-999.0,68,-99.99,,,0.00,Acu-Link.com,2013-10-12 16:32:00,
2013-10-12 11:47:00,88.5,73.8,29.87,SW,225,2.2,-999.0,62,-99.99,,,0.00,Acu-Link.com,2013-10-12 16:47:00,
2013-10-12 12:03:00,87.8,73.6,29.88,NNW,337,1.1,-999.0,63,-99.99,,,0.00,Acu-Link.com,2013-10-12 17:03:00,
2013-10-12 12:18:00,88.7,73.0,29.91,South,180,3.7,-999.0,60,-99.99,,,0.00,Acu-Link.com,2013-10-12 17:18:00,
2013-10-12 12:34:00,88.9,73.2,29.88,WNW,292,2.2,-999.0,60,-99.99,,,0.00,Acu-Link.com,2013-10-12 17:34:00,
2013-10-12 12:49:00,89.4,72.1,29.84,WNW,292,5.3,-999.0,57,-99.99,,,0.00,Acu-Link.com,2013-10-12 17:49:00,
2013-10-12 13:04:00,90.7,72.3,29.88,South,180,4.2,-999.0,55,-99.99,,,0.00,Acu-Link.com,2013-10-12 18:04:00,
2013-10-12 13:19:00,87.8,70.6,29.83,West,270,3.7,-999.0,57,-99.99,,,0.00,Acu-Link.com,2013-10-12 18:19:00,
2013-10-12 13:34:00,88.3,70.1,29.82,SSW,202,2.7,-999.0,55,-99.99,,,0.00,Acu-Link.com,2013-10-12 18:34:00,
2013-10-12 13:50:00,90.1,71.2,29.85,SW,225,3.7,-999.0,54,-99.99,,,0.00,Acu-Link.com,2013-10-12 18:50:00,
2013-10-12 14:05:00,90.3,70.2,29.85,SSE,157,6.3,-999.0,52,-99.99,,,0.00,Acu-Link.com,2013-10-12 19:05:00,
2013-10-12 14:20:00,91.0,69.1,29.84,South,180,2.2,-999.0,49,-99.99,,,0.00,Acu-Link.com,2013-10-12 19:20:00,
2013-10-12 14:35:00,90.9,69.6,29.81,South,180,2.2,-999.0,50,-99.99,,,0.00,Acu-Link.com,2013-10-12 19:35:00,
2013-10-12 14:50:00,91.0,70.9,29.82,SSE,157,1.1,-999.0,52,-99.99,,,0.00,Acu-Link.com,2013-10-12 19:50:00,
2013-10-12 15:06:00,90.3,69.7,29.82,ESE,112,3.2,-999.0,51,-99.99,,,0.00,Acu-Link.com,2013-10-12 20:06:00,
2013-10-12 15:21:00,90.9,69.6,29.81,WSW,247,2.7,-999.0,50,-99.99,,,0.00,Acu-Link.com,2013-10-12 20:21:00,
2013-10-12 15:36:00,94.1,69.5,29.84,SW,225,0.0,-999.0,45,-99.99,,,0.00,Acu-Link.com,2013-10-12 20:36:00,
2013-10-12 15:51:00,89.4,68.9,29.81,SSW,202,1.1,-999.0,51,-99.99,,,0.00,Acu-Link.com,2013-10-12 20:51:00,
2013-10-12 16:06:00,90.1,67.7,29.80,NE,45,0.0,-999.0,48,-99.99,,,0.00,Acu-Link.com,2013-10-12 21:06:00,
2013-10-12 16:22:00,92.1,69.5,29.79,NNW,337,0.0,-999.0,48,-99.99,,,0.00,Acu-Link.com,2013-10-12 21:22:00,
2013-10-12 16:37:00,90.3,70.2,29.81,SW,225,0.0,-999.0,52,-99.99,,,0.00,Acu-Link.com,2013-10-12 21:37:00,
2013-10-12 16:52:00,90.9,69.1,29.80,South,180,3.7,-999.0,49,-99.99,,,0.00,Acu-Link.com,2013-10-12 21:52:00,
2013-10-12 17:07:00,90.7,69.5,29.79,WSW,247,0.0,-999.0,50,-99.99,,,0.00,Acu-Link.com,2013-10-12 22:07:00,
2013-10-12 17:22:00,90.0,70.0,29.82,SW,225,1.7,-999.0,52,-99.99,,,0.00,Acu-Link.com,2013-10-12 22:22:00,
2013-10-12 17:38:00,88.9,69.0,29.83,SW,225,0.0,-999.0,52,-99.99,,,0.00,Acu-Link.com,2013-10-12 22:38:00,
2013-10-12 17:53:00,88.5,70.2,29.84,ENE,67,0.0,-999.0,55,-99.99,,,0.00,Acu-Link.com,2013-10-12 22:53:00,
2013-10-12 18:08:00,85.5,72.4,29.83,ESE,112,7.8,-999.0,65,-99.99,,,0.00,Acu-Link.com,2013-10-12 23:08:00,
2013-10-12 18:23:00,83.5,73.5,29.84,SE,135,10.4,-999.0,72,-99.99,,,0.00,Acu-Link.com,2013-10-12 23:23:00,
2013-10-12 18:39:00,82.6,73.0,29.82,ESE,112,7.3,-999.0,73,-99.99,,,0.00,Acu-Link.com,2013-10-12 23:39:00,
2013-10-12 18:54:00,82.0,72.5,29.86,South,180,2.2,-999.0,73,-99.99,,,0.00,Acu-Link.com,2013-10-12 23:54:00,
2013-10-12 19:09:00,81.3,71.8,29.86,South,180,4.7,-999.0,73,-99.99,,,0.00,Acu-Link.com,2013-10-13 00:09:00,
2013-10-12 19:24:00,80.8,71.7,29.87,SSE,157,4.7,-999.0,74,-99.99,,,0.00,Acu-Link.com,2013-10-13 00:24:00,
2013-10-12 19:39:00,80.4,71.7,29.89,South,180,3.7,-999.0,75,-99.99,,,0.00,Acu-Link.com,2013-10-13 00:39:00,
2013-10-12 19:55:00,79.3,71.1,29.86,SSW,202,2.7,-999.0,76,-99.99,,,0.00,Acu-Link.com,2013-10-13 00:55:00,
2013-10-12 20:10:00,78.4,71.7,29.89,SSW,202,4.2,-999.0,80,-99.99,,,0.00,Acu-Link.com,2013-10-13 01:10:00,
2013-10-12 20:25:00,78.1,72.1,29.90,SSW,202,5.3,-999.0,82,-99.99,,,0.00,Acu-Link.com,2013-10-13 01:25:00,
2013-10-12 20:40:00,77.7,72.1,29.90,SSW,202,2.2,-999.0,83,-99.99,,,0.00,Acu-Link.com,2013-10-13 01:40:00,
2013-10-12 20:55:00,77.4,72.2,29.89,SSE,157,5.3,-999.0,84,-99.99,,,0.00,Acu-Link.com,2013-10-13 01:55:00,
2013-10-12 21:11:00,77.2,72.3,29.94,SW,225,1.7,-999.0,85,-99.99,,,0.00,Acu-Link.com,2013-10-13 02:11:00,
2013-10-12 21:26:00,77.0,72.1,29.94,SW,225,0.0,-999.0,85,-99.99,,,0.00,Acu-Link.com,2013-10-13 02:26:00,
2013-10-12 21:41:00,75.9,71.7,29.95,NNW,337,0.0,-999.0,87,-99.99,,,0.01,Acu-Link.com,2013-10-13 02:41:00,
2013-10-12 21:56:00,74.7,71.2,29.97,NNW,337,8.3,-999.0,89,-99.99,,,0.02,Acu-Link.com,2013-10-13 02:56:00,
2013-10-12 22:11:00,73.2,70.1,29.94,NW,315,3.2,-999.0,90,-99.99,,,0.11,Acu-Link.com,2013-10-13 03:11:00,
2013-10-12 22:27:00,72.9,70.1,29.97,WNW,292,4.2,-999.0,91,-99.99,,,0.14,Acu-Link.com,2013-10-13 03:27:00,
2013-10-12 22:42:00,72.5,69.7,29.96,NNE,22,4.7,-999.0,91,-99.99,,,0.17,Acu-Link.com,2013-10-13 03:42:00,
2013-10-12 22:57:00,72.1,69.3,29.95,West,270,2.2,-999.0,91,-99.99,,,0.20,Acu-Link.com,2013-10-13 03:57:00,
2013-10-12 23:12:00,72.1,69.6,29.93,WSW,247,0.0,-999.0,92,-99.99,,,0.23,Acu-Link.com,2013-10-13 04:12:00,
2013-10-12 23:28:00,72.0,69.5,29.90,SW,225,0.0,-999.0,92,-99.99,,,0.23,Acu-Link.com,2013-10-13 04:28:00,
2013-10-12 23:43:00,71.8,69.3,29.93,NE,45,0.0,-999.0,92,-99.99,,,0.23,Acu-Link.com,2013-10-13 04:43:00,
2013-10-12 23:58:00,71.8,69.3,29.90,SSW,202,1.7,-999.0,92,-99.99,,,0.23,Acu-Link.com,2013-10-13 04:58:00,